A- A+ FrançaisEnglishEspañol中国

le plus proche LFBT Tarbes-Lourdes-PyrénéesLFBP Pau-PyrénéesLFBZ Biarritz-Bayonne-Anglet LFJR Angers Marce

manche à air

La météo aéronautique pour les pilotes, la préparation du vol avec les METAR (METeorological Aerodrome Report, message d'observation des conditions météorologiques pour l'aviation) et Les TAF (Terminal Aerodrome Forecast : message de prévision à court terme des conditions météorologiques pour l'aviation). Et les autres ressources comme les VAC (Visual Approch Chart) et les NOTAM (Notice To Airman) pour préprer les vols.

Aéroport Alta (Norvège) / OACI ENAT/ IATA ALF

L'altitude de l'aéroport Alta est de 3 m=10 ft. Il est situé à proximité de Alta (Norvège). La météo générale à 5 jours est disponible pour Bukta situé à 1.7 km.

METAR de l'aéroport Alta - ENAT

ENAT 030050Z AUTO 02004KT 350V050 9999 FEW039/// SCT048/// BKN072/// 01/M02 Q0966 RMK WIND 700FT 19011KT

Décodage du METAR de l'aéroport Alta (NO)

METAR émis par ENAT le vendredi 3 janvier 2020 à 00:50 heure TU. C'est un METAR généré automatiquement. Attention ce METAR est obsolète car il a été émis il y a 18 heure et 34 minutes.

La visibilité est de supérieure à 10 km=supérieure à 6.2 sm.

La température est de 1°C=34 °F et le point rosée est de -2°C=28 °F . Ce qui correspond à 80% d'humidité relative.

Le QNH est de 966 hPa=28.53 inHg

Vent de 4 kt=7 km/h, orienté à 20°.

Nuages : Quelques nuages à 3900 ft=1190 mètres. Nuages épars à 4800 ft=1460 mètres. Couverture nuageuse fragmentée à 7200 ft=2190 mètres.

RMK WIND 700FT 19011KT

TAF de l'aéroport Alta - ENAT

ENAT 021700Z 0218/0223 17008KT 9999 FEW012 BKN035

ENAT 021700Z 0218/0223 17008KT 9999 quelques nuages à 012 couverture nuageuse fragmentée à 035

Aéroport à proximité de Alta

Météo générale à 5 jours à Bukta (1.7 km)ENNA Aéroport Banak (62 km)ENHK Aéroport Hasvik (73 km)ENHF Aéroport Hammaerfest (79 km)ENSR Aéroport Sorkjosen (95 km)ENKA Aéroport Kautokeino (105 km)ENHV Aéroport Honningsvag Valan (150 km)

Vue aérienne de l'aéroport Alta

NOTAM de l'aéroport Alta

Les NOTAM sont fournis sans aucune garantie de leur actualité. Le pilote est le seul responsable de la vérification de sa validité avant de l'utiliser opérationnellement pour préparer un vol ou l'utiliser lors de sa navigation.

NOTAM Instrument approach procedure (à partir du vendredi 29 novembre 2019 à 06:44 jusqu'au vendredi 31 janvier 2020 à 12:00)

A4289/19 NOTAMR A3505/19
Q) ENOR/QPIAU/I /NBO/A /000/999/6959N02322E005
A) ENAT B) 1911290644 C) 2001311200 EST
E) CENOR FLIP PROCEDURE HPMA ILS OR LOC RWY 11 TEMPORARY WITHDRAWN.
DO NOT USE
CREATED: 29 Nov 2019 06:45:00
SOURCE: EUECYIYN

Sources des données